Time;durP1;ratioP1;P1;durP2;ratioP2;P2;SDS_P1;SDS_P2;PMS_P1;PMS_P2;Temp;Humidity;BMP_temperature;BMP_pressure;BME280_temperature;BME280_humidity;BME280_pressure;Samples;Min_cycle;Max_cycle;Signal;HPM_P1;HPM_P2
2021/01/02 00:01:18;;;;;;;34.55;22.23;;;4.10;91.90;;;;;;5075623;28;20082;-80
2021/01/02 00:03:46;;;;;;;33.55;20.80;;;4.10;91.90;;;;;;5093872;28;20036;-80
2021/01/02 00:06:24;;;;;;;30.95;19.92;;;4.10;91.80;;;;;;5075393;28;20078;-80
2021/01/02 00:08:52;;;;;;;32.28;21.33;;;4.10;91.80;;;;;;5060021;28;20659;-80
2021/01/02 00:11:38;;;;;;;34.35;21.10;;;4.00;91.80;;;;;;5073339;28;20025;-81
2021/01/02 00:14:09;;;;;;;36.20;20.13;;;4.10;91.80;;;;;;5073243;28;20043;-81
2021/01/02 00:16:49;;;;;;;32.40;20.00;;;4.10;91.80;;;;;;5088199;28;20048;-81
2021/01/02 00:19:24;;;;;;;29.60;20.00;;;4.00;91.80;;;;;;5069975;28;20028;-84
2021/01/02 00:22:13;;;;;;;31.70;20.35;;;4.10;91.90;;;;;;5074065;28;20033;-84
2021/01/02 00:24:53;;;;;;;36.58;22.10;;;4.00;91.80;;;;;;5065449;28;20508;-84
2021/01/02 00:27:37;;;;;;;37.67;20.77;;;4.00;91.80;;;;;;5072673;28;20029;-84
2021/01/02 00:30:02;;;;;;;36.35;21.77;;;4.00;91.80;;;;;;5055787;28;20024;-84
2021/01/02 00:32:49;;;;;;;29.98;19.75;;;4.00;92.00;;;;;;5073668;28;20070;-84
2021/01/02 00:35:19;;;;;;;33.90;19.80;;;4.00;91.80;;;;;;5055878;28;20024;-84
2021/01/02 00:38:01;;;;;;;34.42;21.05;;;4.00;91.80;;;;;;5077654;28;20027;-84
2021/01/02 00:40:27;;;;;;;33.45;21.50;;;4.00;92.00;;;;;;5055990;28;20024;-84
2021/01/02 00:42:53;;;;;;;34.72;20.77;;;4.00;91.80;;;;;;5058868;28;20024;-84
2021/01/02 00:45:24;;;;;;;33.60;21.02;;;4.00;91.80;;;;;;5051921;28;20527;-85
2021/01/02 00:47:50;;;;;;;31.92;20.10;;;4.00;91.80;;;;;;5097629;28;20024;-84
2021/01/02 00:50:20;;;;;;;35.53;21.00;;;4.00;91.80;;;;;;5097594;28;20020;-84
2021/01/02 00:52:46;;;;;;;35.67;21.65;;;4.00;91.80;;;;;;5088783;28;20021;-84
2021/01/02 00:55:32;;;;;;;36.25;22.33;;;4.00;91.70;;;;;;5059528;28;20074;-84
2021/01/02 00:58:19;;;;;;;34.22;21.83;;;4.00;91.80;;;;;;5077706;28;20085;-84
2021/01/02 01:00:50;;;;;;;35.55;22.23;;;4.00;91.70;;;;;;5060044;28;20046;-84
2021/01/02 01:03:46;;;;;;;34.70;21.88;;;4.00;91.70;;;;;;5069669;28;20056;-85
2021/01/02 01:06:12;;;;;;;35.65;21.02;;;4.00;91.70;;;;;;5059224;28;20388;-84
2021/01/02 01:08:44;;;;;;;35.50;21.40;;;4.00;91.70;;;;;;5065157;28;20024;-84
2021/01/02 01:11:12;;;;;;;32.17;21.08;;;4.00;91.80;;;;;;5078685;28;20352;-84
2021/01/02 01:13:39;;;;;;;35.15;21.10;;;4.00;91.80;;;;;;5104586;28;20027;-84
2021/01/02 01:16:05;;;;;;;38.00;22.83;;;4.00;91.70;;;;;;5078715;28;20233;-84
2021/01/02 01:18:49;;;;;;;41.17;22.38;;;4.00;91.70;;;;;;5071844;28;20119;-84
2021/01/02 01:21:16;;;;;;;37.80;22.05;;;4.00;91.80;;;;;;5077178;28;20025;-84
2021/01/02 01:24:15;;;;;;;36.58;21.05;;;4.00;91.80;;;;;;5093776;28;20029;-84
2021/01/02 01:27:02;;;;;;;35.13;21.70;;;4.00;91.80;;;;;;5097006;28;20028;-84
2021/01/02 01:29:41;;;;;;;35.65;22.33;;;3.90;91.80;;;;;;5097068;28;20028;-84
2021/01/02 01:32:08;;;;;;;35.05;20.85;;;3.90;91.80;;;;;;5077953;28;20029;-83
2021/01/02 01:34:34;;;;;;;34.42;21.58;;;3.90;91.80;;;;;;5077951;28;20139;-83
2021/01/02 01:37:07;;;;;;;37.28;23.85;;;4.00;91.80;;;;;;5077938;28;20031;-83
2021/01/02 01:39:35;;;;;;;39.08;23.35;;;3.90;91.70;;;;;;5062347;28;20037;-83
2021/01/02 01:42:05;;;;;;;35.47;22.40;;;3.90;91.70;;;;;;5041421;28;20028;-83
2021/01/02 01:44:52;;;;;;;38.20;23.25;;;3.90;91.70;;;;;;5089575;28;20141;-83
2021/01/02 01:47:34;;;;;;;34.58;22.08;;;3.90;91.70;;;;;;5077825;28;20031;-83
2021/01/02 01:50:25;;;;;;;36.65;22.05;;;3.90;91.60;;;;;;5073613;28;20028;-83
2021/01/02 01:52:50;;;;;;;32.65;20.77;;;3.80;91.70;;;;;;5075676;28;20036;-83
2021/01/02 01:55:35;;;;;;;35.58;21.35;;;3.80;91.70;;;;;;5070810;28;20064;-83
2021/01/02 01:58:17;;;;;;;37.30;21.65;;;3.80;91.80;;;;;;5057502;28;20381;-83
2021/01/02 02:00:49;;;;;;;35.83;21.48;;;3.90;91.80;;;;;;5057462;28;20024;-82
2021/01/02 02:03:27;;;;;;;38.83;22.20;;;3.90;91.80;;;;;;5057501;28;20071;-83
2021/01/02 02:06:14;;;;;;;39.45;21.92;;;3.80;91.70;;;;;;5096912;28;20496;-82
2021/01/02 02:08:43;;;;;;;33.67;21.95;;;3.80;91.80;;;;;;5070667;28;20029;-83
2021/01/02 02:11:29;;;;;;;41.80;23.52;;;3.80;91.80;;;;;;5077201;28;20028;-82
2021/01/02 02:14:00;;;;;;;34.75;21.67;;;3.80;91.90;;;;;;5076326;28;20047;-82
2021/01/02 02:16:39;;;;;;;33.75;20.90;;;3.80;91.90;;;;;;5076900;28;20535;-82
2021/01/02 02:19:11;;;;;;;37.28;23.35;;;3.80;91.90;;;;;;5072445;28;20036;-83
2021/01/02 02:21:40;;;;;;;42.72;24.20;;;3.80;91.90;;;;;;5095846;28;20114;-84
2021/01/02 02:24:06;;;;;;;;;;;3.80;91.80;;;;;;5093515;28;22170;-84
2021/01/02 02:26:34;;;;;;;48.42;26.00;;;3.80;91.80;;;;;;5057977;28;19909;-84
2021/01/02 02:29:11;;;;;;;40.70;23.67;;;3.70;91.90;;;;;;5058048;28;20456;-84
2021/01/02 02:31:43;;;;;;;39.80;23.00;;;3.80;91.90;;;;;;5072222;28;20133;-84
2021/01/02 02:34:09;;;;;;;37.47;22.90;;;3.80;91.90;;;;;;5096113;28;20028;-84
2021/01/02 02:36:35;;;;;;;36.10;22.58;;;3.80;91.80;;;;;;5061049;28;20047;-84
2021/01/02 02:39:05;;;;;;;37.38;22.80;;;3.80;92.10;;;;;;5057708;28;20028;-84
2021/01/02 02:41:55;;;;;;;36.45;23.50;;;3.80;92.10;;;;;;5091995;28;20073;-84
2021/01/02 02:44:26;;;;;;;38.13;22.67;;;3.80;91.90;;;;;;5111437;28;20020;-84
2021/01/02 02:47:00;;;;;;;41.92;24.60;;;3.80;91.90;;;;;;5111374;28;20023;-84
2021/01/02 02:49:34;;;;;;;38.75;23.55;;;3.80;91.90;;;;;;5070475;28;20024;-84
2021/01/02 02:52:09;;;;;;;39.22;24.05;;;3.80;91.80;;;;;;5091031;28;20031;-84
2021/01/02 02:54:35;;;;;;;37.42;23.20;;;3.80;91.80;;;;;;5058535;28;20017;-84
2021/01/02 02:57:01;;;;;;;41.13;24.75;;;3.80;91.80;;;;;;5073866;28;20032;-84
2021/01/02 02:59:27;;;;;;;43.42;26.02;;;3.70;91.70;;;;;;5057264;28;20024;-84
2021/01/02 03:01:52;;;;;;;41.35;24.35;;;3.70;91.70;;;;;;5074101;28;20035;-84
2021/01/02 03:04:18;;;;;;;45.15;25.45;;;3.70;91.70;;;;;;5060434;28;20127;-84
2021/01/02 03:06:43;;;;;;;40.72;25.35;;;3.70;91.70;;;;;;5057572;28;20036;-84
2021/01/02 03:09:10;;;;;;;41.03;25.40;;;3.70;91.70;;;;;;5053639;28;20534;-84
2021/01/02 03:11:36;;;;;;;43.45;25.85;;;3.70;91.70;;;;;;5110343;28;20103;-84
2021/01/02 03:14:02;;;;;;;41.08;25.50;;;3.70;91.70;;;;;;5076154;28;20119;-84
2021/01/02 03:16:27;;;;;;;40.22;24.27;;;3.70;91.70;;;;;;5080431;28;20139;-84
2021/01/02 03:18:53;;;;;;;38.65;24.35;;;3.70;91.70;;;;;;5049415;28;20136;-84
2021/01/02 03:21:19;;;;;;;39.65;24.73;;;3.60;91.70;;;;;;5056908;28;20070;-84
2021/01/02 03:23:46;;;;;;;43.85;25.05;;;3.70;91.70;;;;;;5056513;28;20036;-84
2021/01/02 03:26:12;;;;;;;41.60;25.23;;;3.70;91.70;;;;;;5090015;28;20032;-84
2021/01/02 03:28:37;;;;;;;43.47;25.15;;;3.70;91.70;;;;;;5056528;28;20481;-84
2021/01/02 03:31:03;;;;;;;49.53;28.10;;;3.70;91.70;;;;;;5068911;28;20103;-84
2021/01/02 03:33:29;;;;;;;40.60;24.40;;;3.70;91.70;;;;;;5059815;28;20050;-84
2021/01/02 03:36:02;;;;;;;39.50;24.65;;;3.60;91.70;;;;;;5076425;28;20024;-84
2021/01/02 03:38:33;;;;;;;38.65;24.15;;;3.60;91.70;;;;;;5094563;28;20550;-84
2021/01/02 03:41:00;;;;;;;40.17;23.98;;;3.60;91.70;;;;;;5076472;28;20020;-84
2021/01/02 03:43:26;;;;;;;49.00;24.08;;;3.70;91.80;;;;;;5075676;28;20032;-84
2021/01/02 03:45:53;;;;;;;34.33;22.50;;;3.60;91.70;;;;;;5057570;28;20033;-84
2021/01/02 03:48:19;;;;;;;37.45;23.83;;;3.70;91.70;;;;;;5073139;28;20025;-84
2021/01/02 03:50:45;;;;;;;40.10;23.50;;;3.60;91.60;;;;;;5073395;28;20128;-84
2021/01/02 03:53:11;;;;;;;35.85;22.05;;;3.70;91.70;;;;;;5073033;28;20039;-83
2021/01/02 03:55:37;;;;;;;38.90;22.88;;;3.70;91.60;;;;;;5041503;28;20092;-84
2021/01/02 03:58:02;;;;;;;34.72;21.92;;;3.70;91.60;;;;;;5071268;28;20035;-84
2021/01/02 04:00:28;;;;;;;37.13;23.05;;;3.70;91.60;;;;;;5072676;28;20020;-84
2021/01/02 04:02:54;;;;;;;36.08;21.33;;;3.70;91.60;;;;;;5056000;28;20035;-83
2021/01/02 04:05:19;;;;;;;41.22;23.40;;;3.70;91.50;;;;;;5072579;28;20028;-83
2021/01/02 04:07:45;;;;;;;38.33;22.58;;;3.70;91.50;;;;;;5072534;28;20025;-84
2021/01/02 04:10:11;;;;;;;36.90;22.23;;;3.70;91.50;;;;;;5039651;28;20052;-84
2021/01/02 04:12:36;;;;;;;35.03;21.10;;;3.70;91.50;;;;;;5039592;28;20511;-84
2021/01/02 04:15:03;;;;;;;40.03;21.67;;;3.70;91.60;;;;;;5035788;28;20052;-84
2021/01/02 04:17:29;;;;;;;43.67;22.85;;;3.60;91.50;;;;;;5082393;28;20523;-84
2021/01/02 04:19:54;;;;;;;35.95;20.92;;;3.60;91.50;;;;;;5052686;28;20033;-84
2021/01/02 04:22:20;;;;;;;37.40;22.13;;;3.60;91.50;;;;;;5053829;28;20116;-84
2021/01/02 04:24:46;;;;;;;37.45;22.13;;;3.60;91.50;;;;;;5052740;28;20033;-84
2021/01/02 04:27:11;;;;;;;41.63;22.10;;;3.70;91.90;;;;;;5053544;28;20385;-83
2021/01/02 04:29:37;;;;;;;42.42;22.98;;;3.60;91.50;;;;;;5068372;28;20037;-82
2021/01/02 04:32:02;;;;;;;34.58;21.02;;;3.60;91.50;;;;;;5053092;28;20075;-82
2021/01/02 04:34:28;;;;;;;42.45;22.30;;;3.70;91.50;;;;;;5068328;28;20033;-83
2021/01/02 04:36:54;;;;;;;41.75;23.02;;;3.70;91.50;;;;;;5051674;28;20120;-82
2021/01/02 04:39:20;;;;;;;38.63;22.65;;;3.70;91.50;;;;;;5085093;28;20539;-82
2021/01/02 04:41:45;;;;;;;43.00;23.42;;;3.60;91.50;;;;;;5085369;28;20020;-82
2021/01/02 04:44:12;;;;;;;41.40;22.38;;;3.60;91.50;;;;;;5065205;28;20036;-81
2021/01/02 04:46:38;;;;;;;42.50;24.35;;;3.60;91.50;;;;;;5071624;28;20036;-82
2021/01/02 04:49:04;;;;;;;35.70;20.88;;;3.60;91.50;;;;;;5069637;28;20473;-82
2021/01/02 04:51:30;;;;;;;38.67;22.60;;;3.60;91.50;;;;;;5072011;28;20031;-83
2021/01/02 04:54:00;;;;;;;43.28;23.55;;;3.60;91.50;;;;;;5055033;28;20028;-83
2021/01/02 04:56:31;;;;;;;41.72;22.55;;;3.60;91.50;;;;;;5071610;28;20024;-82
2021/01/02 04:58:57;;;;;;;47.10;25.25;;;3.60;91.50;;;;;;5070891;28;20020;-82
2021/01/02 05:01:27;;;;;;;42.03;23.02;;;3.60;91.40;;;;;;5041985;28;20032;-82
2021/01/02 05:03:53;;;;;;;45.58;24.45;;;3.60;91.40;;;;;;5064404;28;20031;-82
2021/01/02 05:06:22;;;;;;;42.67;23.95;;;3.60;91.50;;;;;;5066460;28;20460;-82
2021/01/02 05:08:51;;;;;;;41.10;22.40;;;3.60;91.40;;;;;;5069480;28;20017;-82
2021/01/02 05:11:18;;;;;;;;;;;3.60;91.40;;;;;;5043099;28;20114;-82
2021/01/02 05:13:43;;;;;;;41.60;23.67;;;3.60;91.40;;;;;;5058982;28;20427;-82
2021/01/02 05:16:23;;;;;;;41.90;22.10;;;3.60;91.40;;;;;;5035341;28;20057;-82
2021/01/02 05:18:59;;;;;;;38.00;22.10;;;3.60;91.70;;;;;;5068495;28;20108;-82
2021/01/02 05:21:26;;;;;;;36.47;21.80;;;3.60;91.40;;;;;;5071373;28;20024;-82
2021/01/02 05:24:11;;;;;;;41.80;22.60;;;3.60;91.40;;;;;;5072215;28;20032;-82
2021/01/02 05:26:40;;;;;;;35.20;21.17;;;3.60;91.50;;;;;;5063960;28;20098;-82
2021/01/02 05:29:19;;;;;;;41.15;22.75;;;3.60;91.40;;;;;;5071817;28;20499;-82
2021/01/02 05:31:47;;;;;;;36.50;21.60;;;3.60;91.50;;;;;;5074552;28;20590;-82
2021/01/02 05:34:14;;;;;;;37.83;22.02;;;3.60;91.40;;;;;;5061407;28;20036;-82
2021/01/02 05:36:40;;;;;;;41.72;22.52;;;3.60;91.40;;;;;;5054785;28;20041;-82
2021/01/02 05:39:08;;;;;;;39.08;21.95;;;3.60;91.40;;;;;;5073891;28;20646;-82
2021/01/02 05:41:49;;;;;;;38.10;22.40;;;3.60;91.40;;;;;;5074276;28;20060;-82
2021/01/02 05:44:15;;;;;;;39.05;22.55;;;3.60;91.40;;;;;;5074598;28;20028;-82
2021/01/02 05:46:49;;;;;;;44.15;23.73;;;3.60;91.40;;;;;;5057854;28;20036;-82
2021/01/02 05:49:36;;;;;;;41.33;23.00;;;3.60;91.40;;;;;;5074494;28;20028;-82
2021/01/02 05:52:07;;;;;;;39.15;22.35;;;3.60;91.50;;;;;;5074445;28;20024;-82
2021/01/02 05:54:34;;;;;;;41.83;22.80;;;3.60;91.70;;;;;;5074428;28;20021;-82
2021/01/02 05:57:02;;;;;;;41.85;22.20;;;3.60;91.40;;;;;;5038340;28;20032;-82
2021/01/02 05:59:37;;;;;;;36.85;22.23;;;3.50;91.50;;;;;;5054308;28;20028;-82
2021/01/02 06:02:18;;;;;;;43.08;23.80;;;3.60;91.50;;;;;;5054172;28;20029;-82
2021/01/02 06:05:02;;;;;;;38.60;22.33;;;3.60;91.60;;;;;;5054249;28;20041;-82
2021/01/02 06:07:30;;;;;;;38.67;21.98;;;3.50;91.60;;;;;;5055412;28;20493;-81
2021/01/02 06:09:57;;;;;;;39.53;22.27;;;3.60;91.60;;;;;;5064137;28;20017;-80
2021/01/02 06:12:33;;;;;;;40.08;22.75;;;3.60;91.50;;;;;;5073832;28;20025;-82
2021/01/02 06:15:05;;;;;;;42.05;24.38;;;3.60;91.60;;;;;;5074193;28;20467;-82
2021/01/02 06:17:35;;;;;;;39.13;23.00;;;3.50;91.60;;;;;;5071835;28;20049;-82
2021/01/02 06:20:05;;;;;;;40.67;23.13;;;3.50;91.60;;;;;;5073973;28;20029;-82
2021/01/02 06:22:31;;;;;;;43.75;23.73;;;3.50;91.60;;;;;;5073788;28;20025;-82
2021/01/02 06:24:58;;;;;;;40.40;22.70;;;3.50;91.60;;;;;;5057212;28;20033;-82
2021/01/02 06:27:24;;;;;;;42.85;23.45;;;3.60;91.60;;;;;;5061034;28;20490;-82
2021/01/02 06:29:56;;;;;;;38.65;23.05;;;3.50;91.50;;;;;;5053750;28;20036;-82
2021/01/02 06:32:23;;;;;;;36.40;21.52;;;3.50;91.60;;;;;;5075290;28;20372;-82
2021/01/02 06:35:08;;;;;;;42.75;21.02;;;3.50;91.60;;;;;;5073775;28;20031;-82
2021/01/02 06:37:49;;;;;;;41.20;22.88;;;3.40;91.70;;;;;;5074854;28;20078;-82
2021/01/02 06:40:23;;;;;;;40.95;20.80;;;3.40;91.70;;;;;;5074949;28;20075;-82
2021/01/02 06:42:59;;;;;;;50.03;23.75;;;3.40;91.80;;;;;;5056664;28;20033;-82
2021/01/02 06:45:37;;;;;;;45.72;24.00;;;3.40;91.70;;;;;;5057325;28;20389;-82
2021/01/02 06:48:24;;;;;;;49.88;24.63;;;3.30;91.70;;;;;;5074718;28;20413;-83
2021/01/02 06:50:55;;;;;;;44.28;24.60;;;3.30;91.70;;;;;;5073356;28;20025;-82
2021/01/02 06:53:23;;;;;;;41.10;22.75;;;3.30;91.70;;;;;;5072972;28;20031;-83
2021/01/02 06:56:04;;;;;;;45.75;23.38;;;3.30;91.70;;;;;;5073200;28;20016;-81
2021/01/02 06:58:40;;;;;;;49.58;24.20;;;3.40;91.80;;;;;;5074439;28;20052;-82
2021/01/02 07:01:29;;;;;;;48.78;24.15;;;3.30;91.80;;;;;;5073180;28;20504;-82
2021/01/02 07:03:56;;;;;;;48.03;24.42;;;3.40;91.80;;;;;;5065755;28;20040;-82
2021/01/02 07:06:26;;;;;;;48.50;25.08;;;3.40;91.70;;;;;;5073059;28;20036;-82
2021/01/02 07:09:23;;;;;;;43.33;24.85;;;3.40;91.70;;;;;;5072094;28;20025;-82
2021/01/02 07:11:51;;;;;;;45.92;23.52;;;3.40;91.70;;;;;;5053214;28;20590;-82
2021/01/02 07:14:21;;;;;;;48.72;25.38;;;3.40;91.60;;;;;;5058204;28;20099;-82
2021/01/02 07:16:58;;;;;;;48.65;24.77;;;3.40;91.70;;;;;;5055908;28;20040;-83
2021/01/02 07:19:32;;;;;;;50.75;24.67;;;3.40;91.70;;;;;;5072872;28;20408;-82
2021/01/02 07:22:05;;;;;;;52.80;25.80;;;3.40;91.70;;;;;;5064893;28;20378;-83
2021/01/02 07:24:47;;;;;;;54.58;27.30;;;3.40;91.70;;;;;;5052820;28;20053;-83
2021/01/02 07:27:28;;;;;;;50.80;25.13;;;3.30;91.70;;;;;;5052762;28;20063;-83
2021/01/02 07:30:06;;;;;;;46.05;24.23;;;3.30;91.70;;;;;;5087667;28;20024;-82
2021/01/02 07:32:41;;;;;;;47.05;25.23;;;3.40;91.80;;;;;;5053532;28;20496;-83
2021/01/02 07:35:14;;;;;;;44.40;22.58;;;3.40;91.70;;;;;;5052423;28;20393;-83
2021/01/02 07:37:45;;;;;;;47.92;24.08;;;3.40;91.70;;;;;;5035958;28;20025;-83
2021/01/02 07:40:18;;;;;;;55.92;26.05;;;3.40;91.70;;;;;;5052403;28;20097;-82
2021/01/02 07:42:47;;;;;;;42.58;23.38;;;3.40;91.70;;;;;;5052261;28;20116;-83
2021/01/02 07:45:14;;;;;;;47.33;25.40;;;3.40;91.70;;;;;;5052462;28;20025;-83
2021/01/02 07:47:54;;;;;;;49.08;24.90;;;3.40;91.60;;;;;;5052319;28;20040;-83
2021/01/02 07:50:22;;;;;;;50.63;27.08;;;3.40;91.70;;;;;;5067668;28;20025;-82
2021/01/02 07:52:47;;;;;;;51.58;27.17;;;3.40;91.70;;;;;;5071293;28;20053;-82
2021/01/02 07:55:14;;;;;;;46.80;25.58;;;3.40;91.60;;;;;;5072743;28;20052;-80
2021/01/02 07:57:39;;;;;;;51.70;26.98;;;3.40;91.70;;;;;;5073076;28;20033;-81
2021/01/02 08:00:09;;;;;;;52.33;26.60;;;3.40;91.70;;;;;;5052655;28;20033;-81
2021/01/02 08:02:40;;;;;;;51.13;26.30;;;3.40;91.80;;;;;;5071714;28;20079;-81
2021/01/02 08:05:15;;;;;;;50.03;24.40;;;3.40;91.80;;;;;;5072310;28;20040;-81
2021/01/02 08:07:58;;;;;;;50.47;26.13;;;3.40;91.80;;;;;;5100886;28;20484;-80
2021/01/02 08:10:24;;;;;;;45.10;25.80;;;3.40;91.70;;;;;;5072530;28;20035;-81
2021/01/02 08:12:57;;;;;;;53.70;26.92;;;3.50;91.70;;;;;;5072581;28;20052;-80
2021/01/02 08:15:30;;;;;;;48.33;25.92;;;3.50;91.70;;;;;;5073098;28;20020;-81
2021/01/02 08:18:16;;;;;;;52.10;26.98;;;3.50;91.70;;;;;;5058613;28;20125;-81
2021/01/02 08:20:42;;;;;;;50.35;25.77;;;3.50;91.80;;;;;;5090968;28;20040;-77
2021/01/02 08:23:11;;;;;;;49.95;27.40;;;3.50;91.70;;;;;;5062098;28;20031;-77
2021/01/02 08:25:37;;;;;;;56.30;28.65;;;3.50;91.70;;;;;;5104610;28;20040;-77
2021/01/02 08:28:04;;;;;;;53.25;27.88;;;3.50;91.60;;;;;;5087158;28;20376;-77
2021/01/02 08:30:30;;;;;;;64.93;29.80;;;3.50;91.60;;;;;;5087615;28;20032;-77
2021/01/02 08:32:59;;;;;;;55.78;29.20;;;3.50;91.60;;;;;;5071212;28;20012;-77
2021/01/02 08:35:36;;;;;;;46.45;26.65;;;3.50;91.60;;;;;;5089680;28;20032;-78
2021/01/02 08:38:04;;;;;;;54.28;27.05;;;3.50;91.60;;;;;;5071594;28;20020;-78
2021/01/02 08:40:34;;;;;;;59.38;28.90;;;3.50;91.60;;;;;;5071448;28;20074;-77
2021/01/02 08:43:00;;;;;;;56.47;27.63;;;3.50;91.60;;;;;;5073038;28;20032;-77
2021/01/02 08:45:31;;;;;;;56.05;28.23;;;3.50;91.60;;;;;;5071662;28;20041;-77
2021/01/02 08:48:07;;;;;;;58.42;28.15;;;3.50;91.60;;;;;;5082856;28;20042;-76
2021/01/02 08:50:34;;;;;;;56.40;27.75;;;3.60;91.60;;;;;;5092884;28;20020;-75
2021/01/02 08:53:00;;;;;;;56.78;30.10;;;3.60;91.50;;;;;;5092828;28;20020;-75
2021/01/02 08:55:29;;;;;;;60.33;29.88;;;3.60;91.50;;;;;;5092473;28;20380;-75
2021/01/02 08:57:55;;;;;;;60.80;28.38;;;3.60;91.40;;;;;;5070000;28;20468;-76
2021/01/02 09:00:25;;;;;;;60.42;30.13;;;3.60;91.50;;;;;;5088293;28;20035;-75
2021/01/02 09:02:54;;;;;;;65.22;29.13;;;3.60;91.40;;;;;;5088282;28;20059;-75
2021/01/02 09:05:27;;;;;;;58.95;29.25;;;3.60;91.40;;;;;;5091726;28;20472;-75
2021/01/02 09:07:58;;;;;;;54.75;28.23;;;3.60;91.40;;;;;;5092407;28;20583;-75
2021/01/02 09:10:29;;;;;;;56.17;28.45;;;3.70;91.40;;;;;;5096310;28;20099;-75
2021/01/02 09:13:09;;;;;;;53.15;28.50;;;3.70;91.30;;;;;;5078161;28;20526;-75
2021/01/02 09:15:43;;;;;;;63.58;30.73;;;3.60;91.30;;;;;;5078328;28;20050;-75
2021/01/02 09:18:10;;;;;;;56.90;28.45;;;3.70;91.20;;;;;;5096312;28;20036;-78
2021/01/02 09:20:36;;;;;;;62.08;29.85;;;3.70;91.30;;;;;;5078454;28;20028;-77
2021/01/02 09:23:02;;;;;;;60.38;29.55;;;3.80;91.30;;;;;;5061679;28;20039;-76
2021/01/02 09:25:29;;;;;;;55.75;27.15;;;3.80;91.10;;;;;;5078653;28;20476;-76
2021/01/02 09:27:55;;;;;;;57.45;29.40;;;3.90;91.10;;;;;;5078168;28;20063;-76
2021/01/02 09:30:21;;;;;;;56.65;28.08;;;3.90;91.10;;;;;;5078394;28;20384;-79
2021/01/02 09:32:48;;;;;;;62.25;28.90;;;3.90;91.00;;;;;;5061229;28;20028;-79
2021/01/02 09:35:13;;;;;;;58.80;28.83;;;4.00;91.00;;;;;;5095347;28;20016;-80
2021/01/02 09:37:41;;;;;;;63.45;29.50;;;4.00;91.00;;;;;;5061020;28;20161;-80
2021/01/02 09:40:18;;;;;;;63.78;30.83;;;4.00;90.90;;;;;;5078135;28;20119;-79
2021/01/02 09:42:44;;;;;;;55.38;27.65;;;4.00;90.90;;;;;;5095879;28;20028;-79
2021/01/02 09:45:10;;;;;;;61.17;28.80;;;4.00;90.90;;;;;;5077785;28;20396;-79
2021/01/02 09:47:36;;;;;;;68.40;30.08;;;4.00;90.90;;;;;;5077477;28;20020;-79
2021/01/02 09:50:02;;;;;;;63.45;30.52;;;4.10;90.90;;;;;;5086792;28;20028;-79
2021/01/02 09:52:28;;;;;;;64.47;30.52;;;4.10;90.90;;;;;;5095723;28;20028;-79
2021/01/02 09:54:54;;;;;;;56.03;28.77;;;4.10;90.90;;;;;;5061042;28;20046;-79
2021/01/02 09:57:19;;;;;;;66.65;29.02;;;4.10;90.90;;;;;;5044461;28;20034;-79
2021/01/02 09:59:45;;;;;;;60.50;28.67;;;4.20;90.90;;;;;;5077877;28;20024;-79
2021/01/02 10:02:10;;;;;;;71.75;33.63;;;4.20;90.90;;;;;;5095792;28;20476;-79
2021/01/02 10:04:44;;;;;;;70.63;32.20;;;4.30;90.90;;;;;;5077217;28;20032;-79
2021/01/02 10:07:11;;;;;;;71.22;33.33;;;4.20;90.80;;;;;;5095621;28;20031;-79
2021/01/02 10:09:41;;;;;;;76.03;34.22;;;4.30;90.80;;;;;;5095758;28;20020;-78
2021/01/02 10:12:08;;;;;;;76.10;34.72;;;4.30;90.80;;;;;;5095832;28;20028;-78
2021/01/02 10:14:33;;;;;;;73.32;32.65;;;4.30;90.80;;;;;;5094925;28;20468;-78
2021/01/02 10:17:00;;;;;;;70.72;31.70;;;4.30;90.80;;;;;;5076846;28;20124;-78
2021/01/02 10:19:26;;;;;;;65.28;28.98;;;4.40;90.80;;;;;;5077414;28;20035;-77
2021/01/02 10:21:51;;;;;;;67.97;30.52;;;4.40;90.70;;;;;;5095421;28;20398;-78
2021/01/02 10:24:17;;;;;;;69.22;31.85;;;4.50;90.70;;;;;;5077732;28;20028;-83
2021/01/02 10:26:43;;;;;;;75.10;33.30;;;4.50;90.80;;;;;;5080840;28;20419;-83
2021/01/02 10:29:09;;;;;;;70.40;29.80;;;4.50;90.50;;;;;;5077890;28;20368;-83
2021/01/02 10:31:35;;;;;;;76.18;33.47;;;4.60;90.50;;;;;;5077552;28;20511;-84
2021/01/02 10:34:01;;;;;;;77.45;34.40;;;4.60;90.40;;;;;;5095263;28;20107;-83
2021/01/02 10:36:26;;;;;;;72.93;31.83;;;4.60;90.30;;;;;;5060555;28;20484;-83
2021/01/02 10:38:52;;;;;;;75.88;32.17;;;4.50;90.40;;;;;;5060352;28;20032;-83
2021/01/02 10:41:17;;;;;;;72.15;31.88;;;4.50;90.50;;;;;;5077278;28;20032;-82
2021/01/02 10:43:43;;;;;;;72.15;32.17;;;4.50;90.50;;;;;;5060153;28;20017;-83
2021/01/02 10:46:10;;;;;;;70.68;31.27;;;4.50;90.50;;;;;;5095099;28;20052;-83
2021/01/02 10:48:36;;;;;;;66.88;30.80;;;4.50;90.50;;;;;;5085433;28;20024;-84
2021/01/02 10:51:02;;;;;;;67.43;30.75;;;4.50;90.50;;;;;;5065839;28;20020;-85
2021/01/02 10:53:27;;;;;;;76.45;33.03;;;4.50;90.60;;;;;;5064902;28;20047;-84
2021/01/02 10:55:53;;;;;;;66.07;29.92;;;4.50;90.50;;;;;;5073529;28;20425;-83
2021/01/02 10:58:18;;;;;;;73.53;30.92;;;4.50;90.50;;;;;;5057161;28;20028;-84
2021/01/02 11:00:44;;;;;;;76.03;31.63;;;4.50;90.50;;;;;;5073446;28;20481;-84
2021/01/02 11:03:10;;;;;;;74.88;32.58;;;4.50;90.50;;;;;;5057776;28;20036;-84
2021/01/02 11:05:35;;;;;;;69.35;32.00;;;4.60;90.60;;;;;;5069153;28;20507;-83
2021/01/02 11:08:01;;;;;;;71.10;31.45;;;4.60;90.60;;;;;;5059615;28;20032;-82
2021/01/02 11:10:26;;;;;;;76.07;34.03;;;4.60;90.60;;;;;;5056405;28;20477;-82
2021/01/02 11:12:52;;;;;;;81.25;33.33;;;4.60;90.50;;;;;;5056191;28;20028;-81
2021/01/02 11:15:18;;;;;;;76.90;33.38;;;4.60;90.50;;;;;;5042501;28;20020;-82
2021/01/02 11:17:43;;;;;;;72.47;30.63;;;4.60;90.50;;;;;;5072671;28;20075;-82
2021/01/02 11:20:11;;;;;;;77.40;32.45;;;4.60;90.60;;;;;;5072898;28;20112;-83
2021/01/02 11:22:36;;;;;;;74.90;31.92;;;4.50;90.60;;;;;;5073839;28;20029;-82
2021/01/02 11:25:03;;;;;;;69.18;30.90;;;4.60;90.60;;;;;;5072496;28;20553;-82
2021/01/02 11:27:29;;;;;;;70.35;31.13;;;4.60;90.60;;;;;;5071866;28;20036;-81
2021/01/02 11:29:54;;;;;;;78.70;34.35;;;4.60;90.60;;;;;;5072281;28;20025;-83
2021/01/02 11:32:21;;;;;;;75.00;32.50;;;4.60;90.50;;;;;;5073564;28;20067;-82
2021/01/02 11:34:46;;;;;;;83.03;35.75;;;4.60;90.60;;;;;;5054946;28;20044;-84
2021/01/02 11:37:15;;;;;;;83.63;34.47;;;4.60;90.60;;;;;;5055854;28;20473;-83
2021/01/02 11:39:40;;;;;;;79.37;34.23;;;4.60;90.50;;;;;;5056162;28;20039;-83
2021/01/02 11:42:09;;;;;;;71.28;31.63;;;4.60;90.50;;;;;;5072662;28;20033;-83
2021/01/02 11:44:35;;;;;;;70.68;31.05;;;4.60;90.60;;;;;;5072463;28;20020;-84
2021/01/02 11:47:02;;;;;;;66.13;29.58;;;4.60;90.70;;;;;;5062205;28;20063;-83
2021/01/02 11:49:31;;;;;;;76.97;32.28;;;4.60;90.70;;;;;;5073797;28;20101;-83
2021/01/02 11:52:00;;;;;;;78.88;31.98;;;4.60;90.70;;;;;;5072342;28;20105;-84
2021/01/02 11:54:26;;;;;;;74.15;31.00;;;4.60;90.70;;;;;;5072535;28;20115;-83
2021/01/02 11:56:52;;;;;;;74.75;31.83;;;4.70;90.70;;;;;;5072482;28;20020;-83
2021/01/02 11:59:20;;;;;;;71.50;31.05;;;4.70;90.70;;;;;;5072107;28;20408;-83
2021/01/02 12:01:49;;;;;;;82.20;34.17;;;4.70;90.70;;;;;;5072234;28;20026;-83
2021/01/02 12:04:17;;;;;;;74.10;33.80;;;4.70;90.70;;;;;;5072205;28;20492;-83
2021/01/02 12:06:44;;;;;;;79.72;34.50;;;4.70;90.50;;;;;;5072238;28;20166;-83
2021/01/02 12:09:11;;;;;;;74.93;31.02;;;4.80;90.50;;;;;;5072276;28;20025;-83
2021/01/02 12:11:42;;;;;;;78.07;34.20;;;4.80;90.50;;;;;;5072776;28;20039;-87
2021/01/02 12:14:09;;;;;;;73.72;32.88;;;4.80;90.50;;;;;;5072809;28;20048;-87
2021/01/02 12:16:45;;;;;;;73.20;33.42;;;4.80;90.50;;;;;;5054360;28;20064;-87
2021/01/02 12:19:13;;;;;;;78.65;34.70;;;4.90;90.50;;;;;;5073878;28;20033;-88
2021/01/02 12:21:40;;;;;;;71.50;30.15;;;4.80;90.40;;;;;;5072467;28;20060;-86
2021/01/02 12:24:07;;;;;;;69.30;31.85;;;4.90;90.50;;;;;;5052941;28;20029;-87
2021/01/02 12:26:33;;;;;;;73.72;31.90;;;5.00;90.50;;;;;;5052864;28;20049;-86
2021/01/02 12:28:59;;;;;;;68.43;31.63;;;5.00;90.40;;;;;;5058022;28;20059;-86
2021/01/02 12:31:27;;;;;;;79.40;34.03;;;5.00;90.40;;;;;;5056154;28;20032;-87
2021/01/02 12:33:54;;;;;;;71.30;32.13;;;4.90;90.30;;;;;;5073202;28;20033;-87
2021/01/02 12:36:33;;;;;;;74.68;32.85;;;4.90;90.40;;;;;;5056591;28;20064;-87
2021/01/02 12:38:59;;;;;;;82.40;35.97;;;4.90;90.40;;;;;;5075402;28;20107;-87
2021/01/02 12:41:25;;;;;;;79.72;34.17;;;4.90;90.60;;;;;;5077201;28;20048;-87
2021/01/02 12:43:51;;;;;;;82.75;35.72;;;4.90;90.40;;;;;;5060226;28;20374;-87
2021/01/02 12:46:17;;;;;;;83.07;34.22;;;4.90;90.40;;;;;;5043428;28;20024;-87
2021/01/02 12:48:45;;;;;;;72.50;33.53;;;4.90;90.30;;;;;;5060509;28;20021;-87
2021/01/02 12:51:11;;;;;;;70.65;31.00;;;4.90;90.40;;;;;;5076623;28;20024;-85
2021/01/02 12:53:37;;;;;;;65.35;29.48;;;4.90;90.40;;;;;;5059912;28;20506;-87